Time;durP1;ratioP1;P1;durP2;ratioP2;P2;SDS_P1;SDS_P2;PMS_P1;PMS_P2;Temp;Humidity;BMP_temperature;BMP_pressure;BME280_temperature;BME280_humidity;BME280_pressure;Samples;Min_cycle;Max_cycle;Signal;HPM_P1;HPM_P2
2022/03/18 00:02:46;;;;;;;19.30;7.80;;;;;;;;;;10371717;28;20105;-52
2022/03/18 00:07:47;;;;;;;18.63;7.72;;;;;;;;;;10371089;28;20561;-57
2022/03/18 00:12:52;;;;;;;31.83;8.52;;;;;;;;;;10368089;28;20026;-55
2022/03/18 00:17:53;;;;;;;18.88;7.68;;;;;;;;;;10369015;28;20384;-59
2022/03/18 00:22:54;;;;;;;20.40;8.27;;;;;;;;;;10371499;28;20445;-58
2022/03/18 00:27:54;;;;;;;18.40;7.57;;;;;;;;;;10369997;28;20116;-60
2022/03/18 00:32:55;;;;;;;18.08;7.30;;;;;;;;;;10371396;28;20633;-58
2022/03/18 00:37:56;;;;;;;14.80;7.18;;;;;;;;;;10370727;28;20058;-60
2022/03/18 00:42:56;;;;;;;20.35;7.53;;;;;;;;;;10369832;28;20030;-58
2022/03/18 00:53:16;;;;;;;19.25;8.13;;;;;;;;;;10355807;28;20057;-62
2022/03/18 00:58:17;;;;;;;17.48;8.38;;;;;;;;;;10369789;28;20509;-61
2022/03/18 01:03:19;;;;;;;17.60;6.78;;;;;;;;;;10370508;28;20068;-61
2022/03/18 01:08:19;;;;;;;16.52;7.05;;;;;;;;;;10369190;28;20508;-60
2022/03/18 01:13:22;;;;;;;12.10;6.68;;;;;;;;;;10352266;28;20050;-61
2022/03/18 01:18:22;;;;;;;16.23;7.55;;;;;;;;;;10369299;28;21042;-62
2022/03/18 01:23:23;;;;;;;14.75;7.25;;;;;;;;;;10368932;28;20022;-62
2022/03/18 01:28:24;;;;;;;16.20;7.50;;;;;;;;;;10368771;28;20034;-59
2022/03/18 01:33:24;;;;;;;15.82;7.10;;;;;;;;;;10368417;28;20055;-62
2022/03/18 01:38:25;;;;;;;13.05;6.75;;;;;;;;;;10368276;28;20033;-61
2022/03/18 01:43:25;;;;;;;12.00;6.45;;;;;;;;;;10368177;28;20021;-63
2022/03/18 01:48:26;;;;;;;12.27;6.47;;;;;;;;;;10367837;28;20581;-63
2022/03/18 01:53:27;;;;;;;12.52;7.05;;;;;;;;;;10361038;28;20030;-63
2022/03/18 01:58:28;;;;;;;13.48;6.35;;;;;;;;;;10359387;28;20042;-61
2022/03/18 02:03:29;;;;;;;11.85;6.25;;;;;;;;;;10367853;28;20440;-63
2022/03/18 02:08:29;;;;;;;13.88;7.40;;;;;;;;;;10366829;28;20065;-64
2022/03/18 02:13:30;;;;;;;13.77;6.93;;;;;;;;;;10366690;28;20017;-62
2022/03/18 02:18:31;;;;;;;10.52;6.40;;;;;;;;;;10367310;28;20037;-63
2022/03/18 02:23:31;;;;;;;11.40;6.75;;;;;;;;;;10366141;28;20482;-63
2022/03/18 02:28:32;;;;;;;12.65;6.65;;;;;;;;;;10366756;28;20053;-62
2022/03/18 02:33:32;;;;;;;16.35;6.78;;;;;;;;;;10366486;28;20156;-63
2022/03/18 02:38:33;;;;;;;18.10;6.57;;;;;;;;;;10365948;28;20032;-59
2022/03/18 02:43:33;;;;;;;13.25;6.45;;;;;;;;;;10366143;28;20388;-59
2022/03/18 02:48:34;;;;;;;9.07;5.93;;;;;;;;;;10365730;28;20038;-60
2022/03/18 02:53:35;;;;;;;15.95;6.35;;;;;;;;;;10366230;28;20076;-60
2022/03/18 02:58:37;;;;;;;15.75;6.18;;;;;;;;;;10358596;28;20085;-62
2022/03/18 03:03:37;;;;;;;12.00;6.03;;;;;;;;;;10359196;28;20083;-62
2022/03/18 03:08:39;;;;;;;15.45;7.03;;;;;;;;;;10363505;28;20037;-57
2022/03/18 03:13:40;;;;;;;8.32;5.95;;;;;;;;;;10365452;28;20116;-60
2022/03/18 03:18:40;;;;;;;12.07;6.00;;;;;;;;;;10365003;28;20116;-61
2022/03/18 03:23:42;;;;;;;10.57;6.43;;;;;;;;;;10365944;28;20052;-63
2022/03/18 03:28:43;;;;;;;11.38;5.95;;;;;;;;;;10363916;28;20477;-59
2022/03/18 03:33:44;;;;;;;14.43;6.22;;;;;;;;;;10365378;28;20076;-62
2022/03/18 03:38:45;;;;;;;9.30;5.78;;;;;;;;;;10364943;28;20625;-59
2022/03/18 03:43:45;;;;;;;10.70;6.18;;;;;;;;;;10368959;28;20320;-59
2022/03/18 03:48:46;;;;;;;8.80;5.45;;;;;;;;;;10350942;28;20065;-60
2022/03/18 03:53:46;;;;;;;10.13;6.13;;;;;;;;;;10367483;28;20351;-63
2022/03/18 03:58:48;;;;;;;8.23;5.75;;;;;;;;;;10365362;28;20046;-60
2022/03/18 04:03:48;;;;;;;9.15;5.82;;;;;;;;;;10357478;28;20022;-62
2022/03/18 04:08:49;;;;;;;11.70;6.13;;;;;;;;;;10357992;28;20034;-62
2022/03/18 04:13:50;;;;;;;12.52;6.13;;;;;;;;;;10364907;28;20022;-63
2022/03/18 04:18:51;;;;;;;8.10;5.95;;;;;;;;;;10367339;28;20034;-55
2022/03/18 04:23:51;;;;;;;10.10;5.50;;;;;;;;;;10371449;28;20464;-57
2022/03/18 04:28:52;;;;;;;8.95;6.10;;;;;;;;;;10370994;28;20041;-60
2022/03/18 04:33:52;;;;;;;7.38;5.15;;;;;;;;;;10365013;28;20034;-59
2022/03/18 04:38:53;;;;;;;8.90;5.50;;;;;;;;;;10370187;28;20030;-59
2022/03/18 04:43:54;;;;;;;11.88;6.32;;;;;;;;;;10371137;28;20202;-59
2022/03/18 04:48:54;;;;;;;8.65;5.68;;;;;;;;;;10370967;28;20062;-58
2022/03/18 04:53:55;;;;;;;7.43;5.20;;;;;;;;;;10370316;28;20029;-61
2022/03/18 04:58:56;;;;;;;6.65;5.22;;;;;;;;;;10370442;28;21129;-62
2022/03/18 05:03:57;;;;;;;8.18;5.53;;;;;;;;;;10368427;28;20061;-59
2022/03/18 05:08:57;;;;;;;7.30;5.55;;;;;;;;;;10362109;28;20084;-62
2022/03/18 05:13:59;;;;;;;9.23;5.63;;;;;;;;;;10369519;28;20048;-63
2022/03/18 05:18:59;;;;;;;7.45;5.15;;;;;;;;;;10362644;28;20068;-62
2022/03/18 05:24:00;;;;;;;8.15;5.63;;;;;;;;;;10369625;28;20029;-58
2022/03/18 05:29:01;;;;;;;8.20;5.63;;;;;;;;;;10368715;28;20037;-63
2022/03/18 05:34:02;;;;;;;7.57;5.30;;;;;;;;;;10369293;28;20041;-58
2022/03/18 05:39:03;;;;;;;7.32;5.15;;;;;;;;;;10367077;28;20064;-49
2022/03/18 05:44:06;;;;;;;6.68;5.10;;;;;;;;;;10368698;28;20037;-61
2022/03/18 05:49:07;;;;;;;6.47;5.13;;;;;;;;;;10368803;28;20115;-62
2022/03/18 05:54:08;;;;;;;7.85;5.35;;;;;;;;;;10367682;28;20026;-51
2022/03/18 05:59:10;;;;;;;7.45;5.57;;;;;;;;;;10367750;28;20054;-47
2022/03/18 06:04:12;;;;;;;10.50;6.07;;;;;;;;;;10368017;28;20041;-47
2022/03/18 06:14:36;;;;;;;7.72;5.43;;;;;;;;;;10367039;28;20272;-48
2022/03/18 06:19:36;;;;;;;6.93;4.85;;;;;;;;;;10351937;28;20609;-47
2022/03/18 06:24:37;;;;;;;8.25;5.55;;;;;;;;;;10366944;28;20119;-50
2022/03/18 06:29:42;;;;;;;8.73;5.50;;;;;;;;;;10367215;28;20129;-48
2022/03/18 06:34:43;;;;;;;9.45;5.72;;;;;;;;;;10366087;28;20103;-55
2022/03/18 06:39:44;;;;;;;8.07;5.82;;;;;;;;;;10366116;28;20178;-47
2022/03/18 06:44:44;;;;;;;10.13;6.00;;;;;;;;;;10365874;28;20049;-54
2022/03/18 06:49:45;;;;;;;8.95;5.75;;;;;;;;;;10348208;28;20034;-50
2022/03/18 06:54:46;;;;;;;15.05;5.93;;;;;;;;;;10362002;28;20030;-53
2022/03/18 06:59:46;;;;;;;15.45;6.07;;;;;;;;;;10362491;28;20022;-49
2022/03/18 07:04:47;;;;;;;10.23;5.57;;;;;;;;;;10364171;28;20033;-50
2022/03/18 07:09:47;;;;;;;9.07;5.88;;;;;;;;;;10363003;28;20030;-51
2022/03/18 07:14:49;;;;;;;11.50;5.32;;;;;;;;;;10362112;28;20030;-47
2022/03/18 07:19:51;;;;;;;12.07;6.07;;;;;;;;;;10355871;28;20030;-52
2022/03/18 07:24:52;;;;;;;9.13;6.25;;;;;;;;;;10356579;28;20130;-49
2022/03/18 07:29:52;;;;;;;9.93;6.10;;;;;;;;;;10361101;28;20153;-47
2022/03/18 07:34:53;;;;;;;25.48;7.90;;;;;;;;;;10363293;28;20029;-50
2022/03/18 07:39:53;;;;;;;19.30;7.82;;;;;;;;;;10362563;28;20053;-50
2022/03/18 07:44:54;;;;;;;19.23;8.90;;;;;;;;;;10363637;28;20025;-50
2022/03/18 07:49:54;;;;;;;22.80;8.43;;;;;;;;;;10364433;28;20076;-50
2022/03/18 07:54:56;;;;;;;12.32;8.15;;;;;;;;;;10368556;28;20336;-50
2022/03/18 07:59:56;;;;;;;12.90;7.63;;;;;;;;;;10370649;28;20350;-49
2022/03/18 08:04:57;;;;;;;12.13;7.25;;;;;;;;;;10368728;28;20037;-50
2022/03/18 08:09:58;;;;;;;10.43;7.50;;;;;;;;;;10370678;28;20048;-49
2022/03/18 08:15:02;;;;;;;17.77;8.40;;;;;;;;;;10369130;28;20250;-47
2022/03/18 08:20:04;;;;;;;17.48;7.78;;;;;;;;;;10369738;28;20103;-47
2022/03/18 08:25:06;;;;;;;11.88;8.10;;;;;;;;;;10362499;28;20154;-47
2022/03/18 08:30:11;;;;;;;13.30;8.15;;;;;;;;;;10363058;28;20045;-47
2022/03/18 08:35:11;;;;;;;15.27;7.75;;;;;;;;;;10367086;28;20037;-50
2022/03/18 08:40:13;;;;;;;12.25;7.68;;;;;;;;;;10360294;28;20030;-62
2022/03/18 08:45:14;;;;;;;13.02;7.82;;;;;;;;;;10357021;28;20038;-47
2022/03/18 08:50:16;;;;;;;16.13;8.07;;;;;;;;;;10365431;28;20026;-47
2022/03/18 08:55:17;;;;;;;14.98;7.93;;;;;;;;;;10364733;28;20118;-49
2022/03/18 09:00:19;;;;;;;15.15;7.63;;;;;;;;;;10368539;28;20390;-47
2022/03/18 09:05:19;;;;;;;11.32;7.60;;;;;;;;;;10369591;28;20026;-49
2022/03/18 09:10:20;;;;;;;19.38;8.25;;;;;;;;;;10366360;28;20033;-46
2022/03/18 09:15:21;;;;;;;13.60;7.50;;;;;;;;;;10367389;28;20116;-48
2022/03/18 09:20:22;;;;;;;10.88;7.30;;;;;;;;;;10367507;28;20116;-50
2022/03/18 09:25:22;;;;;;;13.63;7.80;;;;;;;;;;10366006;28;20112;-46
2022/03/18 09:30:23;;;;;;;11.98;8.50;;;;;;;;;;10359858;28;20030;-49
2022/03/18 09:35:25;;;;;;;12.85;8.57;;;;;;;;;;10361097;28;20032;-48
2022/03/18 09:40:25;;;;;;;15.65;7.97;;;;;;;;;;10365655;28;20034;-58
2022/03/18 09:45:31;;;;;;;15.93;8.20;;;;;;;;;;10366049;28;20029;-49
2022/03/18 09:50:33;;;;;;;13.13;7.30;;;;;;;;;;10367931;28;20044;-47
2022/03/18 09:55:37;;;;;;;13.15;7.78;;;;;;;;;;10364767;28;20121;-47
2022/03/18 10:00:38;;;;;;;14.02;7.55;;;;;;;;;;10365686;28;20032;-47
2022/03/18 10:05:59;;;;;;;12.68;7.97;;;;;;;;;;10365858;28;20034;-47
2022/03/18 10:10:59;;;;;;;16.38;8.23;;;;;;;;;;10365744;28;20366;-48
2022/03/18 10:16:00;;;;;;;16.92;8.13;;;;;;;;;;10363686;28;20030;-49
2022/03/18 10:21:08;;;;;;;10.25;7.45;;;;;;;;;;10365492;28;20034;-63
2022/03/18 10:26:09;;;;;;;12.23;7.33;;;;;;;;;;10362767;28;20351;-48
2022/03/18 10:31:22;;;;;;;16.90;9.23;;;;;;;;;;10365474;28;20144;-48
2022/03/18 10:41:48;;;;;;;12.43;7.57;;;;;;;;;;10358560;28;20034;-49
2022/03/18 10:46:50;;;;;;;13.65;7.80;;;;;;;;;;10364035;28;20069;-47
2022/03/18 10:51:51;;;;;;;12.95;8.07;;;;;;;;;;10352102;28;20034;-47
2022/03/18 10:56:55;;;;;;;15.52;7.97;;;;;;;;;;10365339;28;20050;-47
2022/03/18 11:01:56;;;;;;;14.20;7.80;;;;;;;;;;10364937;28;20037;-50
2022/03/18 11:12:21;;;;;;;13.95;8.18;;;;;;;;;;10366238;28;20037;-50
2022/03/18 11:17:23;;;;;;;13.98;7.55;;;;;;;;;;10365692;28;20123;-57
2022/03/18 11:22:25;;;;;;;13.02;7.60;;;;;;;;;;10364036;28;20026;-47
2022/03/18 11:27:26;;;;;;;14.20;7.85;;;;;;;;;;10352430;28;20088;-49
2022/03/18 11:32:29;;;;;;;11.93;7.53;;;;;;;;;;10358414;28;20053;-49
2022/03/18 11:37:30;;;;;;;12.35;8.13;;;;;;;;;;10365739;28;20030;-50
2022/03/18 11:42:31;;;;;;;11.07;7.93;;;;;;;;;;10351082;28;20465;-48
2022/03/18 11:47:32;;;;;;;11.25;7.50;;;;;;;;;;10358775;28;20130;-47
2022/03/18 11:52:33;;;;;;;15.10;8.68;;;;;;;;;;10372756;28;20026;-59
2022/03/18 11:57:42;;;;;;;14.20;7.78;;;;;;;;;;10371136;28;20042;-47
2022/03/18 12:02:43;;;;;;;11.13;7.68;;;;;;;;;;10369629;28;20376;-53
2022/03/18 12:07:50;;;;;;;11.02;7.20;;;;;;;;;;10352611;28;20030;-48
2022/03/18 12:12:50;;;;;;;12.85;7.60;;;;;;;;;;10366343;28;20045;-58
2022/03/18 12:17:54;;;;;;;11.88;6.95;;;;;;;;;;10371446;28;20026;-51
2022/03/18 12:22:58;;;;;;;11.30;6.75;;;;;;;;;;10366804;28;20066;-56
2022/03/18 12:27:59;;;;;;;11.38;7.22;;;;;;;;;;10353763;28;20037;-48
2022/03/18 12:33:08;;;;;;;10.63;7.38;;;;;;;;;;10370206;28;20386;-49
2022/03/18 12:38:13;;;;;;;15.52;7.57;;;;;;;;;;10369165;28;20029;-63
2022/03/18 12:43:16;;;;;;;9.30;6.60;;;;;;;;;;10356013;28;20030;-51
2022/03/18 12:48:20;;;;;;;8.88;6.60;;;;;;;;;;10369620;28;20050;-55
2022/03/18 12:53:26;;;;;;;12.95;7.60;;;;;;;;;;10368088;28;20394;-51
2022/03/18 12:58:34;;;;;;;12.27;7.18;;;;;;;;;;10364820;28;20262;-50
2022/03/18 13:03:35;;;;;;;;;;;;;;;;;;10366512;28;20058;-48
2022/03/18 13:08:36;;;;;;;10.30;7.10;;;;;;;;;;10365657;28;19925;-51
2022/03/18 13:13:47;;;;;;;14.85;6.75;;;;;;;;;;10366992;28;20026;-55
2022/03/18 13:18:58;;;;;;;15.93;6.75;;;;;;;;;;10366644;28;20116;-49
2022/03/18 13:23:59;;;;;;;8.52;6.50;;;;;;;;;;10361638;28;20037;-65
2022/03/18 13:29:00;;;;;;;11.73;6.57;;;;;;;;;;10367323;28;20040;-58
2022/03/18 13:34:01;;;;;;;10.10;6.90;;;;;;;;;;10368827;28;20037;-49
2022/03/18 13:39:19;;;;;;;10.55;6.40;;;;;;;;;;10369397;28;20049;-48
2022/03/18 13:44:21;;;;;;;9.65;6.43;;;;;;;;;;10361923;28;20030;-46
2022/03/18 13:49:22;;;;;;;8.98;6.43;;;;;;;;;;10368449;28;20481;-48
2022/03/18 13:54:22;;;;;;;15.80;6.50;;;;;;;;;;10360550;28;20575;-48
2022/03/18 13:59:24;;;;;;;9.23;6.57;;;;;;;;;;10367486;28;20201;-49
2022/03/18 14:04:26;;;;;;;12.52;6.30;;;;;;;;;;10366487;28;20108;-63
2022/03/18 14:09:27;;;;;;;10.25;6.13;;;;;;;;;;10363869;28;20038;-60
2022/03/18 14:14:29;;;;;;;11.93;6.82;;;;;;;;;;10352054;28;20057;-50
2022/03/18 14:20:01;;;;;;;12.73;5.97;;;;;;;;;;10367089;28;20377;-58
2022/03/18 14:25:11;;;;;;;14.20;6.75;;;;;;;;;;10366333;28;20096;-62
2022/03/18 14:30:17;;;;;;;9.35;5.85;;;;;;;;;;10366728;28;20029;-60
2022/03/18 14:35:18;;;;;;;8.43;6.30;;;;;;;;;;10366982;28;20034;-46
2022/03/18 14:40:21;;;;;;;10.35;5.78;;;;;;;;;;10366331;28;20448;-49
2022/03/18 14:45:22;;;;;;;7.28;5.68;;;;;;;;;;10364191;28;20025;-53
2022/03/18 14:50:22;;;;;;;9.32;6.20;;;;;;;;;;10362794;28;20038;-55
2022/03/18 15:00:42;;;;;;;9.25;5.63;;;;;;;;;;10363419;28;20297;-51
2022/03/18 15:05:43;;;;;;;13.32;6.00;;;;;;;;;;10358257;28;20331;-53
2022/03/18 15:10:43;;;;;;;8.82;5.88;;;;;;;;;;10365011;28;20063;-58
2022/03/18 15:15:46;;;;;;;13.80;5.75;;;;;;;;;;10363805;28;20549;-53
2022/03/18 15:20:47;;;;;;;6.93;5.38;;;;;;;;;;10364655;28;20030;-48
2022/03/18 15:25:47;;;;;;;8.18;5.90;;;;;;;;;;10364580;28;20064;-61
2022/03/18 15:30:48;;;;;;;11.90;5.85;;;;;;;;;;10361571;28;20018;-55
2022/03/18 15:35:48;;;;;;;14.05;6.50;;;;;;;;;;10356357;28;20038;-48
2022/03/18 15:40:49;;;;;;;12.23;6.05;;;;;;;;;;10364448;28;20080;-53
2022/03/18 15:45:52;;;;;;;10.32;6.53;;;;;;;;;;10363353;28;20026;-51
2022/03/18 15:50:57;;;;;;;20.85;6.68;;;;;;;;;;10363555;28;20037;-49
2022/03/18 15:55:58;;;;;;;12.52;6.40;;;;;;;;;;10362831;28;20042;-48
2022/03/18 16:00:58;;;;;;;21.88;7.10;;;;;;;;;;10357957;28;20033;-49
2022/03/18 16:05:59;;;;;;;24.48;7.28;;;;;;;;;;10363792;28;20145;-46
2022/03/18 16:11:00;;;;;;;19.27;7.30;;;;;;;;;;10357862;28;20033;-50
2022/03/18 16:16:02;;;;;;;20.77;7.38;;;;;;;;;;10353146;28;20486;-65
2022/03/18 16:21:06;;;;;;;13.73;7.00;;;;;;;;;;10371460;28;20123;-59
2022/03/18 16:26:06;;;;;;;23.00;6.70;;;;;;;;;;10362696;28;20497;-48
2022/03/18 16:31:07;;;;;;;23.50;7.30;;;;;;;;;;10367345;28;20034;-48
2022/03/18 16:36:08;;;;;;;14.75;7.35;;;;;;;;;;10365539;28;20038;-62
2022/03/18 16:41:08;;;;;;;18.80;7.35;;;;;;;;;;10369234;28;20408;-51
2022/03/18 16:51:28;;;;;;;15.13;6.90;;;;;;;;;;10371120;28;20332;-65
2022/03/18 16:56:29;;;;;;;17.90;7.65;;;;;;;;;;10369655;28;20068;-55
2022/03/18 17:01:51;;;;;;;19.70;7.68;;;;;;;;;;10370190;28;20394;-59
2022/03/18 17:06:54;;;;;;;15.38;6.03;;;;;;;;;;10369638;28;20120;-60
2022/03/18 17:11:56;;;;;;;15.18;6.68;;;;;;;;;;10362890;28;20032;-50
2022/03/18 17:16:57;;;;;;;21.58;5.93;;;;;;;;;;10369467;28;20026;-46
2022/03/18 17:21:57;;;;;;;17.45;6.65;;;;;;;;;;10362516;28;20034;-49
2022/03/18 17:26:59;;;;;;;14.18;6.75;;;;;;;;;;10368893;28;20112;-51
2022/03/18 17:32:00;;;;;;;11.20;6.28;;;;;;;;;;10368891;28;20033;-53
2022/03/18 17:37:02;;;;;;;12.88;6.18;;;;;;;;;;10368064;28;20030;-58
2022/03/18 17:42:04;;;;;;;9.75;5.90;;;;;;;;;;10367187;28;20473;-46
2022/03/18 17:47:05;;;;;;;12.70;6.07;;;;;;;;;;10365605;28;20035;-60
2022/03/18 17:52:07;;;;;;;12.35;6.20;;;;;;;;;;10366099;28;20041;-63
2022/03/18 17:57:08;;;;;;;12.77;5.95;;;;;;;;;;10363288;28;20405;-53
2022/03/18 18:02:08;;;;;;;18.40;6.70;;;;;;;;;;10367582;28;20030;-60
2022/03/18 18:07:11;;;;;;;11.15;6.28;;;;;;;;;;10365636;28;20032;-56
2022/03/18 18:12:14;;;;;;;17.88;6.38;;;;;;;;;;10368397;28;20030;-43
2022/03/18 18:17:14;;;;;;;17.50;6.43;;;;;;;;;;10351388;28;20470;-60
2022/03/18 18:22:17;;;;;;;11.93;6.00;;;;;;;;;;10351697;28;20037;-46
2022/03/18 18:27:21;;;;;;;12.13;5.97;;;;;;;;;;10365926;28;20129;-59
2022/03/18 18:32:23;;;;;;;9.40;5.78;;;;;;;;;;10364657;28;20440;-58
2022/03/18 18:37:24;;;;;;;14.40;5.85;;;;;;;;;;10363425;28;20030;-62
2022/03/18 18:42:27;;;;;;;12.27;5.85;;;;;;;;;;10364543;28;20046;-62
2022/03/18 18:47:29;;;;;;;11.23;5.85;;;;;;;;;;10363719;28;20516;-62
2022/03/18 18:52:31;;;;;;;9.15;5.07;;;;;;;;;;10362911;28;20490;-58
2022/03/18 18:57:31;;;;;;;9.90;5.70;;;;;;;;;;10396456;23;20462;-54
2022/03/18 19:02:32;;;;;;;13.13;5.50;;;;;;;;;;10401978;28;20040;-58
2022/03/18 19:07:33;;;;;;;28.95;6.25;;;;;;;;;;10349784;28;20025;-57
2022/03/18 19:12:35;;;;;;;26.58;7.00;;;;;;;;;;10349515;28;20050;-57
2022/03/18 19:17:37;;;;;;;12.07;6.65;;;;;;;;;;10355422;28;20033;-56
2022/03/18 19:22:38;;;;;;;16.90;6.53;;;;;;;;;;10294610;28;20038;-57
2022/03/18 19:27:39;;;;;;;22.00;5.85;;;;;;;;;;10336185;28;20309;-57
2022/03/18 19:32:40;;;;;;;20.80;7.15;;;;;;;;;;10338402;28;20041;-57
2022/03/18 19:37:41;;;;;;;14.93;6.85;;;;;;;;;;10362014;28;20118;-57
2022/03/18 19:42:43;;;;;;;11.77;6.85;;;;;;;;;;10363574;28;20445;-58
2022/03/18 19:47:43;;;;;;;9.80;5.72;;;;;;;;;;10357846;28;20025;-56
2022/03/18 19:52:44;;;;;;;13.75;6.45;;;;;;;;;;10367932;28;20386;-60
2022/03/18 20:03:06;;;;;;;16.50;6.80;;;;;;;;;;10360279;28;20042;-59
2022/03/18 20:08:07;;;;;;;12.40;6.18;;;;;;;;;;10368956;28;20030;-59
2022/03/18 20:13:09;;;;;;;15.13;6.45;;;;;;;;;;10370090;28;20393;-54
2022/03/18 20:18:09;;;;;;;18.88;6.22;;;;;;;;;;10362357;28;20060;-63
2022/03/18 20:23:11;;;;;;;16.33;6.63;;;;;;;;;;10367114;28;20180;-64
2022/03/18 20:28:11;;;;;;;12.40;6.20;;;;;;;;;;10366024;28;20038;-58
2022/03/18 20:33:12;;;;;;;14.35;6.18;;;;;;;;;;10358024;28;20093;-59
2022/03/18 20:38:13;;;;;;;11.43;6.10;;;;;;;;;;10367667;28;20025;-63
2022/03/18 20:43:14;;;;;;;11.48;6.35;;;;;;;;;;10369670;28;20041;-60
2022/03/18 20:48:16;;;;;;;12.82;6.30;;;;;;;;;;10367634;28;20037;-60
2022/03/18 20:53:16;;;;;;;9.65;5.47;;;;;;;;;;10368927;28;20026;-59
2022/03/18 20:58:17;;;;;;;11.73;5.70;;;;;;;;;;10354522;28;20092;-53
2022/03/18 21:03:19;;;;;;;13.10;5.97;;;;;;;;;;10358637;28;20036;-62
2022/03/18 21:08:19;;;;;;;11.77;5.82;;;;;;;;;;10345782;28;20293;-57
2022/03/18 21:13:20;;;;;;;8.38;5.50;;;;;;;;;;10364751;28;20637;-61
2022/03/18 21:18:22;;;;;;;10.80;5.78;;;;;;;;;;10369444;28;20030;-60
2022/03/18 21:23:23;;;;;;;9.82;6.10;;;;;;;;;;10366642;28;20030;-56
2022/03/18 21:33:43;;;;;;;11.82;6.25;;;;;;;;;;10367283;28;20030;-61
2022/03/18 21:38:44;;;;;;;15.15;5.75;;;;;;;;;;10360489;28;20025;-61
2022/03/18 21:43:45;;;;;;;13.70;5.88;;;;;;;;;;10363885;28;20026;-61
2022/03/18 21:48:46;;;;;;;13.40;6.20;;;;;;;;;;10363735;28;20030;-57
2022/03/18 21:53:46;;;;;;;12.63;5.72;;;;;;;;;;10366969;28;20374;-59
2022/03/18 21:58:47;;;;;;;14.93;5.82;;;;;;;;;;10363768;28;20117;-58
2022/03/18 22:03:47;;;;;;;11.15;5.75;;;;;;;;;;10359373;28;20363;-60
2022/03/18 22:08:48;;;;;;;17.77;7.18;;;;;;;;;;10354178;28;20049;-60
2022/03/18 22:13:49;;;;;;;28.55;6.60;;;;;;;;;;10355950;28;20026;-60
2022/03/18 22:18:49;;;;;;;17.13;6.35;;;;;;;;;;10353420;28;20026;-60
2022/03/18 22:23:50;;;;;;;20.20;7.25;;;;;;;;;;10355383;28;20351;-60
2022/03/18 22:28:51;;;;;;;13.68;6.45;;;;;;;;;;10355802;28;20416;-60
2022/03/18 22:33:51;;;;;;;21.83;7.18;;;;;;;;;;10362329;28;20029;-60
2022/03/18 22:38:52;;;;;;;20.13;6.55;;;;;;;;;;10362790;28;20133;-60
2022/03/18 22:43:52;;;;;;;23.20;6.40;;;;;;;;;;10363093;28;20014;-60
2022/03/18 22:48:53;;;;;;;18.60;6.57;;;;;;;;;;10348251;28;20038;-59
2022/03/18 22:53:53;;;;;;;15.88;6.55;;;;;;;;;;10363616;28;20125;-59
2022/03/18 22:58:54;;;;;;;15.77;6.30;;;;;;;;;;10361636;28;20045;-59
2022/03/18 23:03:55;;;;;;;12.95;6.00;;;;;;;;;;10363640;28;20114;-59
2022/03/18 23:08:56;;;;;;;15.25;5.75;;;;;;;;;;10357082;28;20492;-58
2022/03/18 23:13:56;;;;;;;14.52;5.72;;;;;;;;;;10356444;28;20367;-59
2022/03/18 23:18:59;;;;;;;13.70;6.57;;;;;;;;;;10364326;28;20030;-59
2022/03/18 23:24:03;;;;;;;13.82;5.82;;;;;;;;;;10365357;28;20052;-60
2022/03/18 23:29:04;;;;;;;11.50;5.65;;;;;;;;;;10368334;28;20124;-60
2022/03/18 23:34:05;;;;;;;11.15;5.93;;;;;;;;;;10371579;28;20397;-60
2022/03/18 23:39:05;;;;;;;14.20;6.07;;;;;;;;;;10370093;28;20042;-60
2022/03/18 23:44:06;;;;;;;12.60;6.13;;;;;;;;;;10370278;28;20505;-60
2022/03/18 23:49:07;;;;;;;10.43;5.47;;;;;;;;;;10370968;28;20169;-60
2022/03/18 23:54:08;;;;;;;10.52;5.82;;;;;;;;;;10370339;28;20029;-60
2022/03/18 23:59:09;;;;;;;8.98;5.93;;;;;;;;;;10368717;28;20046;-60
